Time;durP1;ratioP1;P1;durP2;ratioP2;P2;SDS_P1;SDS_P2;PMS_P1;PMS_P2;Temp;Humidity;BMP_temperature;BMP_pressure;BME280_temperature;BME280_humidity;BME280_pressure;Samples;Min_cycle;Max_cycle;Signal;HPM_P1;HPM_P2
2021/05/12 00:00:25;;;;;;;14.50;11.27;;;13.70;99.90;;;;;;5097690;28;20169;-94
2021/05/12 00:02:51;;;;;;;18.45;11.80;;;13.70;99.90;;;;;;5097466;28;20219;-94
2021/05/12 00:05:18;;;;;;;16.83;11.43;;;13.60;99.90;;;;;;5097309;28;20539;-96
2021/05/12 00:07:52;;;;;;;18.20;11.25;;;13.60;99.90;;;;;;5097515;28;20222;-95
2021/05/12 00:10:21;;;;;;;18.23;11.95;;;13.60;99.90;;;;;;5096515;28;20168;-94
2021/05/12 00:13:09;;;;;;;14.35;11.73;;;13.60;99.90;;;;;;5095688;28;20196;-95
2021/05/12 00:15:35;;;;;;;15.98;11.82;;;13.60;99.90;;;;;;5098334;28;20222;-94
2021/05/12 00:18:09;;;;;;;14.82;11.40;;;13.60;99.90;;;;;;5098540;28;20176;-95
2021/05/12 00:20:36;;;;;;;16.45;11.68;;;13.60;99.90;;;;;;5096475;28;20183;-94
2021/05/12 00:23:12;;;;;;;19.05;13.02;;;13.70;99.90;;;;;;5096409;28;20208;-93
2021/05/12 00:25:41;;;;;;;16.88;12.30;;;13.70;99.90;;;;;;5095197;28;20198;-95
2021/05/12 00:28:09;;;;;;;17.08;12.15;;;13.60;99.90;;;;;;5098712;28;20176;-95
2021/05/12 00:31:21;;;;;;;17.95;11.68;;;13.60;99.90;;;;;;5099691;28;20187;-94
2021/05/12 00:34:08;;;;;;;14.45;10.70;;;13.60;99.90;;;;;;5097981;28;20258;-94
2021/05/12 00:37:06;;;;;;;15.70;10.23;;;13.60;99.90;;;;;;5097606;28;20179;-94
2021/05/12 00:40:03;;;;;;;13.00;9.73;;;13.60;99.90;;;;;;5097608;28;20176;-94
2021/05/12 00:42:34;;;;;;;15.25;10.02;;;13.60;99.90;;;;;;5097167;28;20216;-96
2021/05/12 00:45:21;;;;;;;16.17;10.38;;;13.60;99.90;;;;;;5099357;28;20168;-96
2021/05/12 00:47:52;;;;;;;15.32;10.52;;;13.50;99.90;;;;;;5100491;28;20165;-93
2021/05/12 00:50:22;;;;;;;13.48;9.38;;;13.50;99.90;;;;;;5097993;28;20646;-94
2021/05/12 00:52:51;;;;;;;14.85;10.00;;;13.50;99.90;;;;;;5100727;28;20208;-95
2021/05/12 00:55:17;;;;;;;12.95;9.52;;;13.40;99.90;;;;;;5099829;28;20224;-95
2021/05/12 00:57:51;;;;;;;14.40;9.32;;;13.50;99.90;;;;;;5098020;28;20180;-94
2021/05/12 01:03:35;;;;;;;16.08;8.60;;;13.50;99.90;;;;;;5102915;28;20304;-95
2021/05/12 01:06:02;;;;;;;11.13;8.02;;;13.50;99.90;;;;;;5101008;28;20635;-95
2021/05/12 01:08:33;;;;;;;11.27;8.50;;;13.40;99.90;;;;;;5102742;28;20176;-95
2021/05/12 01:11:04;;;;;;;11.68;8.70;;;13.40;99.90;;;;;;5102078;28;20225;-94
2021/05/12 01:13:35;;;;;;;11.45;8.32;;;13.40;99.90;;;;;;5102721;28;20236;-95
2021/05/12 01:16:10;;;;;;;10.77;8.20;;;13.40;99.90;;;;;;5102252;28;20181;-93
2021/05/12 01:18:41;;;;;;;11.05;7.40;;;13.40;99.90;;;;;;5102671;28;20229;-96
2021/05/12 01:21:21;;;;;;;11.45;8.15;;;13.40;99.90;;;;;;5102024;28;20184;-94
2021/05/12 01:23:51;;;;;;;10.52;7.25;;;13.40;99.90;;;;;;5101489;28;20728;-94
2021/05/12 01:26:26;;;;;;;9.85;6.90;;;13.30;99.90;;;;;;5099811;28;20168;-93
2021/05/12 01:28:55;;;;;;;12.30;7.63;;;13.30;99.90;;;;;;5101111;28;20176;-94
2021/05/12 01:31:40;;;;;;;9.98;7.90;;;13.30;99.90;;;;;;5096669;28;20635;-95
2021/05/12 01:34:11;;;;;;;10.93;8.07;;;13.30;99.90;;;;;;5083839;28;20182;-95
2021/05/12 01:36:37;;;;;;;12.40;7.82;;;13.30;99.90;;;;;;5082957;28;20248;-96
2021/05/12 01:39:13;;;;;;;10.25;8.57;;;13.30;99.90;;;;;;5081352;28;20194;-93
2021/05/12 01:41:40;;;;;;;11.20;8.27;;;13.30;99.90;;;;;;5082711;28;20208;-94
2021/05/12 01:44:10;;;;;;;13.90;8.30;;;13.30;99.90;;;;;;5080696;28;20174;-95
2021/05/12 01:46:38;;;;;;;13.35;8.50;;;13.30;99.90;;;;;;5079087;28;20165;-94
2021/05/12 01:49:06;;;;;;;11.23;8.23;;;13.30;99.90;;;;;;5077086;28;20616;-95
2021/05/12 01:51:43;;;;;;;10.48;8.70;;;13.30;99.90;;;;;;5078851;28;20219;-94
2021/05/12 01:54:21;;;;;;;11.85;8.32;;;13.40;99.90;;;;;;5079239;28;20172;-94
2021/05/12 01:56:50;;;;;;;12.60;8.77;;;13.40;99.90;;;;;;5079260;28;20189;-95
2021/05/12 01:59:43;;;;;;;10.25;8.65;;;13.40;99.90;;;;;;5079354;28;20252;-93
2021/05/12 02:02:16;;;;;;;11.15;8.13;;;13.40;99.90;;;;;;5077910;28;20292;-95
2021/05/12 02:04:46;;;;;;;13.02;8.90;;;13.40;99.90;;;;;;5079165;28;20261;-96
2021/05/12 02:07:13;;;;;;;12.80;9.07;;;13.40;99.90;;;;;;5078853;28;20640;-94
2021/05/12 02:09:51;;;;;;;10.32;8.82;;;13.40;99.90;;;;;;5078676;28;20201;-94
2021/05/12 02:12:18;;;;;;;12.10;8.50;;;13.40;99.90;;;;;;5079179;28;20224;-95
2021/05/12 02:14:51;;;;;;;10.65;9.18;;;13.40;99.90;;;;;;5080329;28;20628;-93
2021/05/12 02:17:19;;;;;;;10.77;8.55;;;13.40;99.90;;;;;;5079255;28;20203;-94
2021/05/12 02:19:58;;;;;;;12.30;10.00;;;13.40;99.90;;;;;;5079677;28;20174;-95
2021/05/12 02:22:43;;;;;;;10.88;9.10;;;13.30;99.90;;;;;;5078122;28;20204;-95
2021/05/12 02:25:20;;;;;;;11.30;10.18;;;13.30;99.90;;;;;;5076176;28;20169;-96
2021/05/12 02:27:52;;;;;;;10.88;9.70;;;13.40;99.90;;;;;;5076613;28;20168;-95
2021/05/12 02:30:40;;;;;;;11.32;9.73;;;13.30;99.90;;;;;;5078119;28;20231;-94
2021/05/12 02:33:11;;;;;;;13.60;10.88;;;13.30;99.90;;;;;;5075767;28;20211;-94
2021/05/12 02:35:44;;;;;;;12.05;10.50;;;13.30;99.90;;;;;;5078507;28;20243;-94
2021/05/12 02:40:45;;;;;;;15.30;10.80;;;13.20;99.90;;;;;;5188025;22;20269;-96
2021/05/12 02:43:11;;;;;;;18.30;10.25;;;13.20;99.90;;;;;;5071778;28;20217;-96
2021/05/12 02:45:36;;;;;;;15.73;10.38;;;13.20;99.90;;;;;;5071837;28;20228;-95
2021/05/12 02:48:04;;;;;;;13.57;10.50;;;13.10;99.90;;;;;;5091115;28;20225;-95
2021/05/12 02:50:34;;;;;;;18.77;11.10;;;13.10;99.90;;;;;;5094349;28;20260;-95
2021/05/12 02:53:02;;;;;;;17.05;11.55;;;13.10;99.90;;;;;;5095216;28;20226;-96
2021/05/12 02:55:29;;;;;;;14.57;12.00;;;13.20;99.90;;;;;;5094473;28;20309;-95
2021/05/12 02:57:56;;;;;;;17.50;12.75;;;13.20;99.90;;;;;;5094568;28;20172;-96
2021/05/12 03:00:24;;;;;;;15.07;13.07;;;13.20;99.90;;;;;;5095114;28;20173;-96
2021/05/12 03:02:50;;;;;;;14.75;12.13;;;13.10;99.90;;;;;;5094762;28;20216;-95
2021/05/12 03:05:16;;;;;;;14.70;12.68;;;13.10;99.90;;;;;;5094899;28;20164;-96
2021/05/12 03:07:43;;;;;;;13.43;11.75;;;13.10;99.90;;;;;;5094429;28;20177;-96
2021/05/12 03:10:13;;;;;;;15.45;12.05;;;13.10;99.90;;;;;;5093623;28;20199;-96
2021/05/12 03:12:39;;;;;;;22.38;13.70;;;13.10;99.90;;;;;;5093983;28;20203;-95
2021/05/12 03:15:07;;;;;;;18.73;14.38;;;13.10;99.90;;;;;;5094363;28;20176;-95
2021/05/12 03:17:33;;;;;;;16.98;13.05;;;13.10;99.90;;;;;;5094212;28;20177;-96
2021/05/12 03:19:59;;;;;;;16.75;13.23;;;13.00;99.90;;;;;;5094327;28;20272;-96
2021/05/12 03:22:25;;;;;;;14.70;12.60;;;13.00;99.90;;;;;;5094092;28;20212;-96
2021/05/12 03:24:51;;;;;;;16.52;12.63;;;13.00;99.90;;;;;;5094287;28;20200;-95
2021/05/12 03:27:17;;;;;;;16.02;12.40;;;12.90;99.90;;;;;;5094148;28;20227;-96
2021/05/12 03:29:43;;;;;;;17.48;13.63;;;13.00;99.90;;;;;;5094525;28;20187;-95
2021/05/12 03:32:09;;;;;;;18.15;13.30;;;13.00;99.90;;;;;;5093056;28;20487;-96
2021/05/12 03:34:34;;;;;;;15.52;12.73;;;13.00;99.90;;;;;;5094597;28;20168;-94
2021/05/12 03:37:00;;;;;;;14.45;11.50;;;13.00;99.90;;;;;;5094071;28;20553;-93
2021/05/12 03:39:26;;;;;;;14.82;11.98;;;13.00;99.90;;;;;;5093837;28;20226;-95
2021/05/12 03:41:52;;;;;;;15.13;11.40;;;13.00;99.90;;;;;;5094005;28;20208;-96
2021/05/12 03:44:18;;;;;;;14.00;11.98;;;13.00;99.90;;;;;;5094084;28;20198;-95
2021/05/12 03:46:43;;;;;;;14.75;11.43;;;12.90;99.90;;;;;;5093913;28;20195;-95
2021/05/12 03:49:09;;;;;;;15.07;12.07;;;12.90;99.90;;;;;;5094377;28;20172;-95
2021/05/12 03:51:35;;;;;;;16.25;12.52;;;12.90;99.90;;;;;;5094016;28;20169;-95
2021/05/12 03:54:00;;;;;;;19.42;12.02;;;12.80;99.90;;;;;;5093376;28;20186;-95
2021/05/12 03:56:26;;;;;;;16.42;11.65;;;12.80;99.90;;;;;;5093996;28;20173;-96
2021/05/12 03:58:52;;;;;;;15.52;12.05;;;12.70;99.90;;;;;;5094221;28;20180;-96
2021/05/12 04:01:18;;;;;;;14.32;12.43;;;12.80;99.90;;;;;;5094993;28;20192;-96
2021/05/12 04:03:50;;;;;;;18.83;13.27;;;12.80;99.90;;;;;;5098299;28;20223;-94
2021/05/12 04:06:15;;;;;;;18.73;12.45;;;12.80;99.90;;;;;;5098001;28;20176;-95
2021/05/12 04:08:41;;;;;;;18.48;13.30;;;12.80;99.90;;;;;;5097829;28;20271;-95
2021/05/12 04:11:07;;;;;;;16.38;12.55;;;12.80;99.90;;;;;;5097608;28;20275;-96
2021/05/12 04:13:32;;;;;;;20.20;14.30;;;12.90;99.90;;;;;;5097500;28;20495;-93
2021/05/12 04:15:58;;;;;;;19.40;13.90;;;12.80;99.90;;;;;;5097648;28;20177;-95
2021/05/12 04:18:26;;;;;;;18.33;14.52;;;12.80;99.90;;;;;;5097802;28;20176;-95
2021/05/12 04:20:52;;;;;;;16.88;13.63;;;12.90;99.90;;;;;;5097943;28;20181;-95
2021/05/12 04:23:18;;;;;;;19.35;14.65;;;12.80;99.90;;;;;;5097520;28;20234;-95
2021/05/12 04:25:43;;;;;;;16.85;13.93;;;12.80;99.90;;;;;;5097599;28;20594;-96
2021/05/12 04:28:10;;;;;;;22.70;16.38;;;12.80;99.90;;;;;;5097510;28;20172;-95
2021/05/12 04:30:35;;;;;;;17.27;14.80;;;12.80;99.90;;;;;;5097346;28;20173;-95
2021/05/12 04:33:01;;;;;;;18.73;15.52;;;12.80;99.90;;;;;;5096919;28;20238;-95
2021/05/12 04:35:29;;;;;;;20.58;16.00;;;12.70;99.90;;;;;;5097176;28;20605;-95
2021/05/12 04:37:55;;;;;;;22.17;16.00;;;12.70;99.90;;;;;;5097511;28;20177;-95
2021/05/12 04:40:22;;;;;;;20.65;15.98;;;12.70;99.90;;;;;;5096676;28;20228;-94
2021/05/12 04:42:48;;;;;;;20.50;15.77;;;12.70;99.90;;;;;;5097312;28;20652;-94
2021/05/12 04:45:15;;;;;;;20.15;14.65;;;12.70;99.90;;;;;;5097472;28;20176;-96
2021/05/12 04:47:42;;;;;;;19.40;15.10;;;12.70;99.90;;;;;;5097043;28;20184;-96
2021/05/12 04:50:10;;;;;;;19.17;14.65;;;12.70;99.90;;;;;;5097025;28;20263;-94
2021/05/12 04:52:38;;;;;;;22.23;15.10;;;12.60;99.90;;;;;;5096955;28;20176;-94
2021/05/12 04:55:05;;;;;;;21.52;14.15;;;12.60;99.90;;;;;;5096806;28;20255;-94
2021/05/12 04:57:30;;;;;;;19.60;13.23;;;12.60;99.90;;;;;;5097339;28;20181;-95
2021/05/12 04:59:56;;;;;;;16.48;12.45;;;12.60;99.90;;;;;;5096769;28;20550;-94
2021/05/12 05:02:22;;;;;;;16.67;12.90;;;12.70;99.90;;;;;;5096217;28;20212;-96
2021/05/12 05:04:48;;;;;;;18.45;13.48;;;12.70;99.90;;;;;;5096767;28;20226;-95
2021/05/12 05:07:13;;;;;;;18.90;14.27;;;12.70;99.90;;;;;;5096384;28;20177;-94
2021/05/12 05:09:39;;;;;;;18.63;13.20;;;12.70;99.90;;;;;;5096348;28;20179;-94
2021/05/12 05:12:05;;;;;;;23.70;14.67;;;12.70;99.90;;;;;;5096231;28;20204;-95
2021/05/12 05:14:31;;;;;;;21.25;14.20;;;12.70;99.90;;;;;;5095690;28;20555;-95
2021/05/12 05:16:58;;;;;;;22.67;15.57;;;12.70;99.90;;;;;;5097065;28;20184;-93
2021/05/12 05:19:24;;;;;;;22.15;15.15;;;12.60;99.90;;;;;;5096566;28;20225;-95
2021/05/12 05:21:49;;;;;;;21.88;15.15;;;12.50;99.90;;;;;;5096683;28;20303;-94
2021/05/12 05:24:15;;;;;;;25.73;16.73;;;12.50;99.90;;;;;;5096551;28;20179;-94
2021/05/12 05:26:41;;;;;;;27.42;16.67;;;12.50;99.90;;;;;;5096486;28;20176;-96
2021/05/12 05:29:07;;;;;;;25.17;17.13;;;12.50;99.90;;;;;;5096678;28;20204;-94
2021/05/12 05:31:33;;;;;;;21.52;16.92;;;12.50;99.90;;;;;;5096612;28;20220;-95
2021/05/12 05:34:01;;;;;;;24.13;17.48;;;12.60;99.90;;;;;;5096299;28;20581;-94
2021/05/12 05:36:27;;;;;;;23.07;17.23;;;12.50;99.90;;;;;;5096394;28;20253;-93
2021/05/12 05:38:53;;;;;;;25.80;17.60;;;12.50;99.90;;;;;;5095876;28;20208;-94
2021/05/12 05:41:19;;;;;;;24.97;18.37;;;12.50;99.90;;;;;;5095832;28;20184;-93
2021/05/12 05:43:44;;;;;;;27.33;19.27;;;12.60;99.90;;;;;;5096138;28;20181;-94
2021/05/12 05:46:10;;;;;;;24.45;18.98;;;12.60;99.90;;;;;;5096202;28;20168;-96
2021/05/12 05:48:36;;;;;;;26.35;19.73;;;12.60;99.90;;;;;;5096266;28;20173;-96
2021/05/12 05:51:01;;;;;;;31.02;19.65;;;12.60;99.90;;;;;;5096133;28;20226;-95
2021/05/12 05:53:27;;;;;;;30.38;20.02;;;12.60;99.90;;;;;;5096212;28;20204;-93
2021/05/12 05:55:53;;;;;;;29.02;19.75;;;12.60;99.90;;;;;;5095581;28;20187;-94
2021/05/12 05:58:19;;;;;;;31.90;22.13;;;12.60;99.90;;;;;;5095970;28;20202;-93
2021/05/12 06:00:45;;;;;;;28.27;20.42;;;12.60;99.90;;;;;;5095606;28;20179;-93
2021/05/12 06:03:13;;;;;;;31.90;21.60;;;12.70;99.90;;;;;;5095460;28;20242;-96
2021/05/12 06:05:45;;;;;;;35.78;22.95;;;12.70;99.90;;;;;;5095854;28;20172;-94
2021/05/12 06:08:11;;;;;;;29.98;20.85;;;12.70;99.90;;;;;;5095625;28;20173;-95
2021/05/12 06:10:37;;;;;;;31.85;21.77;;;12.70;99.90;;;;;;5095478;28;20183;-96
2021/05/12 06:13:04;;;;;;;32.25;22.83;;;12.70;99.90;;;;;;5095852;28;20261;-95
2021/05/12 06:15:29;;;;;;;30.23;22.00;;;12.70;99.90;;;;;;5095558;28;20625;-94
2021/05/12 06:17:55;;;;;;;33.85;22.90;;;12.70;99.90;;;;;;5095867;28;20181;-96
2021/05/12 06:20:21;;;;;;;31.25;22.45;;;12.70;99.90;;;;;;5095439;28;20536;-96
2021/05/12 06:22:47;;;;;;;31.92;23.63;;;12.70;99.90;;;;;;5095460;28;20233;-95
2021/05/12 06:25:13;;;;;;;30.08;21.65;;;12.80;99.90;;;;;;5094956;28;20226;-95
2021/05/12 06:27:40;;;;;;;28.58;21.85;;;12.80;99.90;;;;;;5096140;28;20641;-94
2021/05/12 06:30:07;;;;;;;29.92;22.48;;;12.80;99.90;;;;;;5095855;28;20604;-94
2021/05/12 06:32:33;;;;;;;31.85;22.38;;;12.80;99.90;;;;;;5095100;28;20189;-95
2021/05/12 06:34:58;;;;;;;29.63;22.23;;;12.80;99.90;;;;;;5095072;28;20179;-94
2021/05/12 06:37:24;;;;;;;32.25;22.38;;;12.90;99.90;;;;;;5095498;28;20200;-95
2021/05/12 06:39:50;;;;;;;28.88;21.27;;;12.90;99.90;;;;;;5094378;28;20227;-93
2021/05/12 06:42:17;;;;;;;34.28;21.60;;;12.90;99.90;;;;;;5095737;28;20238;-95
2021/05/12 06:44:43;;;;;;;29.40;20.60;;;13.00;99.90;;;;;;5094626;28;20176;-93
2021/05/12 06:47:09;;;;;;;29.80;22.23;;;13.00;99.90;;;;;;5094712;28;20180;-93
2021/05/12 06:49:35;;;;;;;28.52;21.80;;;13.00;99.90;;;;;;5094816;28;20176;-94
2021/05/12 06:52:00;;;;;;;28.83;20.45;;;13.00;99.90;;;;;;5094482;28;20196;-94
2021/05/12 06:54:26;;;;;;;29.48;21.10;;;13.10;99.90;;;;;;5094389;28;20172;-95
2021/05/12 06:56:52;;;;;;;27.00;20.00;;;13.10;99.90;;;;;;5094815;28;20271;-94
2021/05/12 06:59:17;;;;;;;28.48;20.30;;;13.00;99.90;;;;;;5094774;28;20187;-93
2021/05/12 07:01:43;;;;;;;30.25;21.25;;;13.00;99.90;;;;;;5094592;28;20208;-92
2021/05/12 07:04:09;;;;;;;28.92;21.58;;;13.00;99.90;;;;;;5094659;28;20206;-94
2021/05/12 07:06:34;;;;;;;31.05;21.15;;;13.00;99.90;;;;;;5094695;28;20177;-94
2021/05/12 07:09:00;;;;;;;26.08;19.63;;;12.90;99.90;;;;;;5095555;28;20557;-94
2021/05/12 07:11:26;;;;;;;26.63;20.00;;;13.00;99.90;;;;;;5093869;28;20173;-95
2021/05/12 07:13:52;;;;;;;26.73;19.65;;;13.00;99.90;;;;;;5094310;28;20599;-94
2021/05/12 07:16:19;;;;;;;26.55;20.13;;;13.10;99.90;;;;;;5094874;28;20202;-95
2021/05/12 07:18:45;;;;;;;29.77;19.92;;;13.00;99.90;;;;;;5098524;28;20180;-96
2021/05/12 07:21:12;;;;;;;29.33;21.52;;;13.00;99.90;;;;;;5099469;28;20263;-96
2021/05/12 07:23:41;;;;;;;26.10;20.48;;;13.00;99.90;;;;;;5098679;28;20281;-96
2021/05/12 07:26:07;;;;;;;27.80;21.13;;;13.00;99.90;;;;;;5096837;28;20176;-96
2021/05/12 07:28:35;;;;;;;26.55;19.83;;;13.00;99.90;;;;;;5091615;28;20185;-96
2021/05/12 07:31:01;;;;;;;31.50;21.08;;;13.00;99.90;;;;;;5075500;28;20197;-95
2021/05/12 07:33:27;;;;;;;28.55;20.55;;;13.10;99.90;;;;;;5078941;28;20693;-96
2021/05/12 07:35:53;;;;;;;27.77;19.35;;;13.10;99.90;;;;;;5069454;28;20291;-96
2021/05/12 07:38:33;;;;;;;27.48;19.40;;;13.10;99.90;;;;;;5092831;28;20238;-96
2021/05/12 07:41:01;;;;;;;25.63;18.95;;;13.10;99.90;;;;;;5077879;28;20246;-95
2021/05/12 07:43:27;;;;;;;29.05;19.75;;;13.10;99.90;;;;;;5081415;28;20346;-94
2021/05/12 07:45:56;;;;;;;21.10;17.40;;;13.00;99.90;;;;;;5085162;28;20819;-96
2021/05/12 07:48:22;;;;;;;27.58;18.95;;;13.00;99.90;;;;;;5067518;28;20236;-95
2021/05/12 07:50:49;;;;;;;24.77;18.05;;;13.10;99.90;;;;;;5078785;28;20184;-96
2021/05/12 07:53:15;;;;;;;24.65;17.65;;;13.10;99.90;;;;;;5075907;28;20177;-94
2021/05/12 07:55:41;;;;;;;24.55;17.85;;;13.10;99.90;;;;;;5097410;28;20651;-96
2021/05/12 07:58:09;;;;;;;23.45;17.38;;;13.10;99.90;;;;;;5096233;28;20259;-94
2021/05/12 08:00:39;;;;;;;23.67;16.92;;;13.10;99.90;;;;;;5094499;28;20258;-94
2021/05/12 08:03:05;;;;;;;24.58;17.35;;;13.10;99.90;;;;;;5096928;28;20219;-95
2021/05/12 08:05:32;;;;;;;27.17;17.25;;;13.10;99.90;;;;;;5093367;28;20211;-95
2021/05/12 08:08:06;;;;;;;26.38;18.25;;;13.10;99.90;;;;;;5104212;23;20299;-94
2021/05/12 08:10:34;;;;;;;24.83;17.50;;;13.10;99.90;;;;;;5078832;28;20409;-94
2021/05/12 08:13:02;;;;;;;23.52;16.23;;;13.20;99.90;;;;;;5082276;28;20235;-93
2021/05/12 08:15:30;;;;;;;22.80;16.15;;;13.30;99.90;;;;;;5083573;28;20516;-93
2021/05/12 08:17:56;;;;;;;25.27;16.75;;;13.30;99.90;;;;;;5083265;28;20676;-93
2021/05/12 08:20:22;;;;;;;22.60;16.55;;;13.30;99.90;;;;;;5085193;28;20181;-94
2021/05/12 08:22:51;;;;;;;24.23;16.83;;;13.30;99.90;;;;;;5095534;28;20523;-92
2021/05/12 08:25:33;;;;;;;20.50;15.80;;;13.20;99.90;;;;;;5083903;28;20226;-94
2021/05/12 08:28:09;;;;;;;20.40;15.15;;;13.30;99.90;;;;;;5103323;28;20184;-95
2021/05/12 08:30:37;;;;;;;20.13;15.07;;;13.40;99.90;;;;;;5102832;28;20287;-92
2021/05/12 08:33:09;;;;;;;19.15;15.05;;;13.40;99.90;;;;;;5097588;28;20200;-95
2021/05/12 08:35:44;;;;;;;24.80;15.52;;;13.50;99.90;;;;;;5092493;28;20530;-94
2021/05/12 08:38:17;;;;;;;22.10;15.13;;;13.40;99.90;;;;;;5092926;28;20184;-92
2021/05/12 08:40:45;;;;;;;21.40;14.70;;;13.40;99.90;;;;;;5084389;28;20169;-92
2021/05/12 08:43:16;;;;;;;19.30;14.18;;;13.40;99.90;;;;;;5083354;28;20212;-94
2021/05/12 08:46:03;;;;;;;19.77;14.45;;;13.40;99.90;;;;;;5075966;28;20220;-95
2021/05/12 08:48:41;;;;;;;19.63;14.25;;;13.40;99.90;;;;;;5080358;28;20184;-94
2021/05/12 08:51:08;;;;;;;19.45;14.30;;;13.50;99.90;;;;;;5064265;28;20177;-93
2021/05/12 08:53:34;;;;;;;16.20;13.50;;;13.50;99.90;;;;;;5080532;28;20898;-92
2021/05/12 08:56:10;;;;;;;18.17;13.80;;;13.50;99.90;;;;;;5087714;28;20195;-93
2021/05/12 08:58:36;;;;;;;20.48;13.70;;;13.50;99.90;;;;;;5086960;28;20188;-94
2021/05/12 09:01:02;;;;;;;19.70;12.65;;;13.50;99.90;;;;;;5079715;28;20180;-94
2021/05/12 09:03:38;;;;;;;18.80;13.02;;;13.50;99.90;;;;;;5088606;28;20682;-94
2021/05/12 09:06:04;;;;;;;17.17;12.85;;;13.50;99.90;;;;;;5076928;28;20221;-92
2021/05/12 09:08:36;;;;;;;15.55;11.45;;;13.50;99.90;;;;;;5078574;28;20217;-94
2021/05/12 09:11:04;;;;;;;16.20;12.10;;;13.40;99.90;;;;;;5078980;28;20189;-92
2021/05/12 09:13:36;;;;;;;15.57;12.02;;;13.40;99.90;;;;;;5079318;28;20197;-96
2021/05/12 09:16:33;;;;;;;17.50;12.15;;;13.40;99.90;;;;;;5077375;28;20257;-95
2021/05/12 09:19:07;;;;;;;15.95;11.77;;;13.40;99.90;;;;;;5020365;28;20202;-94
2021/05/12 09:22:06;;;;;;;17.83;12.48;;;13.40;99.90;;;;;;5040835;28;20212;-95
2021/05/12 09:24:56;;;;;;;21.35;11.52;;;13.50;99.90;;;;;;5005763;28;20218;-95
2021/05/12 09:27:33;;;;;;;13.95;10.75;;;13.50;99.90;;;;;;5001796;28;20179;-95
2021/05/12 09:30:07;;;;;;;15.32;10.27;;;13.50;99.90;;;;;;5000633;28;20321;-94
2021/05/12 09:32:52;;;;;;;13.77;10.38;;;13.50;99.90;;;;;;5009800;28;20234;-94
2021/05/12 09:35:45;;;;;;;15.43;10.32;;;13.50;99.90;;;;;;5025812;28;20194;-93
2021/05/12 09:38:26;;;;;;;12.45;9.70;;;13.40;99.90;;;;;;5058426;28;20196;-94
2021/05/12 09:41:12;;;;;;;14.85;9.55;;;13.40;99.90;;;;;;5058410;28;20189;-95
2021/05/12 09:44:07;;;;;;;12.95;9.57;;;13.50;99.90;;;;;;5056922;28;20724;-93
2021/05/12 09:46:39;;;;;;;16.48;9.57;;;13.40;99.90;;;;;;5058480;28;20209;-94
2021/05/12 09:49:09;;;;;;;14.15;9.18;;;13.50;99.90;;;;;;5058947;28;20188;-93
2021/05/12 09:54:32;;;;;;;12.05;8.60;;;13.40;99.90;;;;;;5058944;28;20164;-91
2021/05/12 09:57:00;;;;;;;12.23;7.97;;;13.40;99.90;;;;;;5051625;28;20228;-96
2021/05/12 09:59:33;;;;;;;11.38;7.53;;;13.50;99.90;;;;;;5053223;28;20268;-93
2021/05/12 10:02:07;;;;;;;14.55;7.75;;;13.50;99.90;;;;;;5058050;28;20568;-93
2021/05/12 10:04:42;;;;;;;10.25;7.32;;;13.50;99.90;;;;;;5058081;28;20192;-93
2021/05/12 10:07:22;;;;;;;10.18;7.30;;;13.40;99.90;;;;;;5058516;28;20182;-92
2021/05/12 10:09:51;;;;;;;10.00;7.30;;;13.40;99.90;;;;;;5057907;28;20197;-92
2021/05/12 10:15:22;;;;;;;10.07;6.95;;;13.50;99.90;;;;;;5059523;28;20219;-94
2021/05/12 10:17:48;;;;;;;12.32;7.65;;;13.50;99.90;;;;;;5048995;28;20228;-93
2021/05/12 10:20:14;;;;;;;10.32;6.97;;;13.50;99.90;;;;;;5058160;28;20166;-95
2021/05/12 10:22:41;;;;;;;13.38;7.28;;;13.50;99.90;;;;;;5058087;28;20213;-93
2021/05/12 10:25:08;;;;;;;12.35;7.55;;;13.60;99.90;;;;;;5057099;28;20190;-94
2021/05/12 10:27:34;;;;;;;8.18;6.50;;;13.60;99.90;;;;;;5058395;28;20174;-95
2021/05/12 10:30:04;;;;;;;8.65;6.47;;;13.80;99.90;;;;;;5057493;28;20174;-93
2021/05/12 10:32:35;;;;;;;9.38;6.68;;;13.90;99.90;;;;;;5057464;28;20271;-92
2021/05/12 10:35:13;;;;;;;8.63;6.28;;;13.90;99.90;;;;;;5056384;28;20273;-95
2021/05/12 10:37:41;;;;;;;9.02;6.78;;;13.90;99.90;;;;;;5057026;28;20173;-96
2021/05/12 10:40:30;;;;;;;10.35;6.80;;;13.80;99.90;;;;;;5057034;28;20194;-94
2021/05/12 10:43:35;;;;;;;8.10;6.05;;;13.80;99.90;;;;;;5039953;28;20228;-93
2021/05/12 10:46:10;;;;;;;8.02;5.95;;;13.90;99.90;;;;;;5057880;28;20295;-92
2021/05/12 10:48:47;;;;;;;6.93;5.70;;;14.00;99.90;;;;;;5056600;28;20193;-94
2021/05/12 10:51:44;;;;;;;7.57;6.10;;;14.10;99.90;;;;;;5053809;28;20191;-94
2021/05/12 10:54:11;;;;;;;12.45;6.15;;;14.20;99.90;;;;;;5057322;28;20177;-92
2021/05/12 10:56:44;;;;;;;8.40;5.93;;;14.10;99.90;;;;;;5045352;28;20270;-95
2021/05/12 10:59:15;;;;;;;6.47;5.43;;;14.10;99.90;;;;;;5058155;28;20177;-94
2021/05/12 11:01:41;;;;;;;7.40;5.75;;;14.10;99.90;;;;;;5056959;28;20670;-93
2021/05/12 11:04:14;;;;;;;9.18;5.50;;;14.20;99.90;;;;;;5057414;28;20353;-94
2021/05/12 11:06:44;;;;;;;7.50;5.38;;;14.20;99.90;;;;;;5056580;28;20192;-93
2021/05/12 11:09:19;;;;;;;7.05;5.30;;;14.20;99.90;;;;;;5036684;28;20723;-94
2021/05/12 11:11:46;;;;;;;7.07;5.60;;;14.30;99.90;;;;;;5056760;28;20173;-94
2021/05/12 11:14:33;;;;;;;6.03;5.43;;;14.30;99.90;;;;;;5057358;28;20176;-92
2021/05/12 11:17:13;;;;;;;8.00;5.00;;;14.30;99.90;;;;;;5057613;28;20174;-94
2021/05/12 11:19:57;;;;;;;5.72;4.80;;;14.30;99.90;;;;;;5057422;28;20174;-95
2021/05/12 11:25:41;;;;;;;6.78;4.75;;;14.30;99.90;;;;;;5057378;28;20178;-95
2021/05/12 11:33:39;;;;;;;5.90;4.50;;;14.10;99.90;;;;;;5056574;28;20209;-93
2021/05/12 11:36:14;;;;;;;6.63;4.20;;;14.10;99.90;;;;;;5054724;28;20177;-94
2021/05/12 11:38:43;;;;;;;5.90;4.45;;;14.10;99.90;;;;;;5055814;28;20184;-94
2021/05/12 11:41:16;;;;;;;4.72;3.92;;;14.10;99.90;;;;;;5042631;28;20230;-93
2021/05/12 11:43:54;;;;;;;4.72;3.90;;;14.20;99.90;;;;;;5049972;28;20263;-95
2021/05/12 11:46:25;;;;;;;5.85;4.15;;;14.20;99.90;;;;;;5044480;28;20241;-93
2021/05/12 11:49:12;;;;;;;5.43;4.38;;;14.30;99.90;;;;;;5041417;28;20192;-94
2021/05/12 11:51:47;;;;;;;6.55;4.50;;;14.30;99.90;;;;;;5056446;28;20177;-95
2021/05/12 11:54:32;;;;;;;5.30;4.80;;;14.40;99.90;;;;;;5054848;28;20205;-93
2021/05/12 11:57:01;;;;;;;5.13;4.43;;;14.30;99.90;;;;;;5056458;28;20182;-95
2021/05/12 12:00:21;;;;;;;5.13;4.30;;;14.30;99.90;;;;;;5072870;28;20163;-95
2021/05/12 12:03:23;;;;;;;6.95;4.40;;;14.30;99.90;;;;;;5055452;28;20267;-93
2021/05/12 12:06:07;;;;;;;6.32;5.20;;;14.20;99.90;;;;;;5072419;28;20645;-95
2021/05/12 12:09:05;;;;;;;5.18;4.53;;;14.20;99.90;;;;;;5068340;28;20230;-95
2021/05/12 12:11:33;;;;;;;5.78;4.60;;;14.10;99.90;;;;;;5073819;28;20166;-94
2021/05/12 12:14:02;;;;;;;5.13;4.60;;;14.10;99.90;;;;;;5074719;28;20174;-92
2021/05/12 12:16:45;;;;;;;6.20;5.18;;;14.00;99.90;;;;;;5074366;28;20223;-93
2021/05/12 12:19:18;;;;;;;5.55;4.72;;;14.00;99.90;;;;;;5073816;28;20509;-95
2021/05/12 12:21:49;;;;;;;6.05;4.80;;;14.10;99.90;;;;;;5073699;28;20197;-95
2021/05/12 12:24:27;;;;;;;5.80;4.80;;;14.10;99.90;;;;;;5076043;28;20163;-96
2021/05/12 12:26:59;;;;;;;5.32;4.82;;;14.10;99.90;;;;;;5078253;28;20216;-94
2021/05/12 12:29:42;;;;;;;6.03;5.38;;;14.30;99.90;;;;;;5077490;28;20170;-93
2021/05/12 12:32:08;;;;;;;5.32;4.68;;;14.30;99.90;;;;;;5077036;28;20194;-93
2021/05/12 12:34:40;;;;;;;5.90;4.90;;;14.40;99.90;;;;;;5073774;28;20182;-93
2021/05/12 12:37:31;;;;;;;7.18;4.70;;;14.30;99.90;;;;;;5077234;28;20173;-93
2021/05/12 12:40:08;;;;;;;6.13;4.43;;;14.20;99.90;;;;;;5076724;28;20174;-93
2021/05/12 12:43:09;;;;;;;5.35;4.85;;;14.20;99.90;;;;;;5078121;28;20240;-92
2021/05/12 12:45:42;;;;;;;6.00;4.90;;;14.10;99.90;;;;;;5066010;28;20263;-93
2021/05/12 12:48:08;;;;;;;4.70;4.20;;;14.00;99.90;;;;;;5077363;28;20193;-95
2021/05/12 12:50:45;;;;;;;5.00;4.43;;;14.00;99.90;;;;;;5077645;28;20173;-92
2021/05/12 12:53:29;;;;;;;5.00;4.50;;;14.00;99.90;;;;;;5077520;28;20253;-93
2021/05/12 12:56:07;;;;;;;6.53;5.18;;;14.00;99.90;;;;;;5077865;28;20581;-94
2021/05/12 12:58:34;;;;;;;5.75;5.13;;;14.00;99.90;;;;;;5077103;28;20185;-93
2021/05/12 13:01:04;;;;;;;7.53;5.80;;;14.00;99.90;;;;;;5077969;28;20181;-96
2021/05/12 13:03:35;;;;;;;7.15;5.38;;;14.00;99.90;;;;;;5077457;28;20209;-95
2021/05/12 13:06:03;;;;;;;6.90;5.30;;;14.00;99.90;;;;;;5077127;28;20174;-93
2021/05/12 13:08:36;;;;;;;8.18;5.95;;;14.10;99.90;;;;;;5075359;28;20693;-93
2021/05/12 13:11:24;;;;;;;8.25;5.50;;;14.10;99.90;;;;;;5076166;28;20657;-95
2021/05/12 13:14:21;;;;;;;9.35;5.32;;;14.10;99.90;;;;;;5075438;28;20189;-95